createdAt,value
2023-02-06T00:01:18.880Z,16.48
2023-02-06T00:05:21.713Z,17.35
2023-02-06T00:09:24.514Z,14.65
2023-02-06T00:13:28.634Z,16.13
2023-02-06T00:17:31.400Z,16.05
2023-02-06T00:21:34.608Z,15.30
2023-02-06T00:25:37.573Z,14.10
2023-02-06T00:29:41.820Z,15.30
2023-02-06T00:33:44.633Z,14.52
2023-02-06T00:37:47.509Z,13.43
2023-02-06T00:41:50.931Z,16.40
2023-02-06T00:45:57.308Z,14.00
2023-02-06T00:50:00.121Z,14.27
2023-02-06T00:54:02.959Z,12.85
2023-02-06T00:58:05.746Z,14.50
2023-02-06T01:02:09.931Z,13.20
2023-02-06T01:06:12.745Z,13.88
2023-02-06T01:10:15.525Z,11.00
2023-02-06T01:14:18.306Z,11.65
2023-02-06T01:18:22.441Z,14.40
2023-02-06T01:22:25.406Z,12.40
2023-02-06T01:26:28.648Z,15.02
2023-02-06T01:30:32.504Z,14.50
2023-02-06T01:34:38.062Z,17.13
2023-02-06T01:38:41.974Z,15.35
2023-02-06T01:42:45.256Z,16.67
2023-02-06T01:46:49.744Z,15.48
2023-02-06T01:50:56.583Z,14.13
2023-02-06T01:55:03.805Z,15.43
2023-02-06T01:59:07.826Z,14.05
2023-02-06T02:03:10.689Z,14.23
2023-02-06T02:07:20.876Z,14.38
2023-02-06T02:11:26.320Z,13.77
2023-02-06T02:15:39.048Z,16.85
2023-02-06T02:20:19.101Z,14.80
2023-02-06T02:24:33.224Z,13.65
2023-02-06T02:29:13.281Z,16.02
2023-02-06T02:33:42.387Z,13.75
2023-02-06T02:37:59.438Z,17.58
2023-02-06T02:42:14.373Z,13.40
2023-02-06T02:46:23.449Z,16.30
2023-02-06T02:50:27.394Z,15.80
2023-02-06T02:54:31.559Z,15.57
2023-02-06T02:58:36.047Z,14.98
2023-02-06T03:02:41.374Z,17.13
2023-02-06T03:06:51.419Z,16.53
2023-02-06T03:11:03.930Z,18.88
2023-02-06T03:15:15.027Z,17.00
2023-02-06T03:19:21.286Z,19.23
2023-02-06T03:23:28.211Z,15.00
2023-02-06T03:27:33.606Z,15.63
2023-02-06T03:31:41.739Z,20.35
2023-02-06T03:35:44.895Z,16.02
2023-02-06T03:39:47.755Z,18.00
2023-02-06T03:43:53.205Z,15.18
2023-02-06T03:47:59.480Z,17.90
2023-02-06T03:52:12.232Z,15.75
2023-02-06T03:56:24.391Z,13.75
2023-02-06T04:00:30.587Z,15.93
2023-02-06T04:04:37.136Z,18.00
2023-02-06T04:08:39.928Z,19.35
2023-02-06T04:12:42.704Z,16.88
2023-02-06T04:16:46.885Z,15.15
2023-02-06T04:20:49.698Z,15.43
2023-02-06T04:24:52.511Z,17.95
2023-02-06T04:28:55.337Z,17.00
2023-02-06T04:32:59.496Z,19.05
2023-02-06T04:37:03.462Z,17.73
2023-02-06T04:41:08.078Z,17.67
2023-02-06T04:45:11.168Z,17.55
2023-02-06T04:49:16.237Z,21.65
2023-02-06T04:53:19.552Z,20.33
2023-02-06T04:57:22.376Z,18.23
2023-02-06T05:01:25.370Z,18.77
2023-02-06T05:05:29.699Z,20.92
2023-02-06T05:09:32.491Z,20.38
2023-02-06T05:13:35.971Z,18.45
2023-02-06T05:17:38.785Z,18.77
2023-02-06T05:21:42.913Z,21.30
2023-02-06T05:25:46.775Z,24.15
2023-02-06T05:29:49.567Z,21.90
2023-02-06T05:33:52.908Z,23.85
2023-02-06T05:37:58.304Z,21.95
2023-02-06T05:42:01.087Z,25.13
2023-02-06T05:46:03.924Z,21.70
2023-02-06T05:50:07.484Z,23.45
2023-02-06T05:54:11.852Z,32.58
2023-02-06T05:58:14.682Z,26.98
2023-02-06T06:02:17.908Z,31.20
2023-02-06T06:06:20.758Z,23.80
2023-02-06T06:10:25.126Z,18.88
2023-02-06T06:14:28.270Z,22.67
2023-02-06T06:18:31.133Z,22.08
2023-02-06T06:22:33.918Z,30.08
2023-02-06T06:26:38.097Z,22.05
2023-02-06T06:30:40.943Z,24.88
2023-02-06T06:34:43.871Z,29.55
2023-02-06T06:38:46.615Z,32.63
2023-02-06T06:42:50.811Z,30.73
2023-02-06T06:46:53.632Z,35.33
2023-02-06T06:50:56.495Z,33.17
2023-02-06T06:54:59.342Z,39.83
2023-02-06T06:59:03.513Z,33.60
2023-02-06T07:03:06.594Z,31.83
2023-02-06T07:07:09.752Z,27.30
2023-02-06T07:11:14.542Z,29.95
2023-02-06T07:15:18.735Z,30.98
2023-02-06T07:19:21.697Z,26.98
2023-02-06T07:23:24.499Z,28.83
2023-02-06T07:27:27.298Z,26.50
2023-02-06T07:31:31.512Z,25.90
2023-02-06T07:35:34.676Z,22.75
2023-02-06T07:39:37.777Z,21.75
2023-02-06T07:43:40.697Z,24.52
2023-02-06T07:47:45.350Z,21.73
2023-02-06T07:51:48.913Z,20.88
2023-02-06T07:55:51.772Z,25.00
2023-02-06T07:59:54.667Z,17.17
2023-02-06T08:03:59.143Z,18.25
2023-02-06T08:08:01.969Z,26.40
2023-02-06T08:12:05.098Z,21.50
2023-02-06T08:16:09.875Z,18.40
2023-02-06T08:20:14.502Z,17.52
2023-02-06T08:24:17.368Z,20.77
2023-02-06T08:28:20.221Z,15.93
2023-02-06T08:32:23.076Z,15.95
2023-02-06T08:36:27.948Z,19.08
2023-02-06T08:40:30.757Z,16.88
2023-02-06T08:44:33.767Z,16.08
2023-02-06T08:48:36.578Z,17.40
2023-02-06T08:52:41.081Z,17.17
2023-02-06T08:56:43.989Z,13.95
2023-02-06T09:00:46.813Z,16.05
2023-02-06T09:04:49.581Z,14.93
2023-02-06T09:08:54.447Z,10.38
2023-02-06T09:12:57.621Z,11.82
2023-02-06T09:17:00.443Z,8.93
2023-02-06T09:21:10.030Z,11.82
2023-02-06T09:25:14.122Z,8.18
2023-02-06T09:29:16.917Z,10.88
2023-02-06T09:33:19.738Z,9.45
2023-02-06T09:37:23.412Z,11.68
2023-02-06T09:41:31.588Z,9.88
2023-02-06T09:45:35.047Z,8.57
2023-02-06T09:49:41.113Z,9.43
2023-02-06T09:53:52.568Z,9.55
2023-02-06T09:58:07.150Z,6.25
2023-02-06T10:02:27.954Z,6.97
2023-02-06T10:06:38.527Z,6.57
2023-02-06T10:10:45.689Z,6.25
2023-02-06T10:14:54.102Z,6.82
2023-02-06T10:19:01.926Z,7.88
2023-02-06T10:23:12.923Z,8.15
2023-02-06T10:27:16.191Z,11.98
2023-02-06T10:31:40.572Z,9.27
2023-02-06T10:35:53.276Z,11.00
2023-02-06T10:40:05.652Z,8.25
2023-02-06T10:44:18.208Z,7.93
2023-02-06T10:48:29.370Z,8.10
2023-02-06T10:52:35.744Z,8.00
2023-02-06T10:56:44.275Z,9.02
2023-02-06T11:00:48.214Z,7.97
2023-02-06T11:04:56.775Z,9.00
2023-02-06T11:08:59.755Z,9.90
2023-02-06T11:13:06.655Z,8.50
2023-02-06T11:17:09.607Z,10.52
2023-02-06T11:21:16.204Z,10.23
2023-02-06T11:25:22.281Z,9.23
2023-02-06T11:29:27.770Z,11.50
2023-02-06T11:33:37.721Z,10.87
2023-02-06T11:37:42.997Z,12.88
2023-02-06T11:41:58.666Z,9.07
2023-02-06T11:46:13.850Z,8.83
2023-02-06T11:50:23.944Z,9.20
2023-02-06T11:54:29.929Z,11.20
2023-02-06T11:58:33.779Z,11.50
2023-02-06T12:02:40.022Z,9.85
2023-02-06T12:10:53.335Z,7.90
2023-02-06T12:15:00.132Z,10.23
2023-02-06T12:19:06.270Z,12.40
2023-02-06T12:23:21.374Z,12.05
2023-02-06T12:27:30.358Z,8.20
2023-02-06T12:31:41.668Z,13.48
2023-02-06T12:35:49.680Z,11.55
2023-02-06T12:39:53.226Z,7.88
2023-02-06T12:44:00.892Z,15.25
2023-02-06T12:48:12.218Z,9.80
2023-02-06T12:52:20.053Z,13.43
2023-02-06T12:56:27.858Z,19.95
2023-02-06T13:00:50.724Z,9.68
2023-02-06T13:04:54.692Z,21.15
2023-02-06T13:09:00.128Z,10.27
2023-02-06T13:13:03.523Z,13.25
2023-02-06T13:17:11.816Z,10.60
2023-02-06T13:21:17.189Z,12.73
2023-02-06T13:25:56.208Z,9.67
2023-02-06T13:30:18.442Z,15.05
2023-02-06T13:34:22.893Z,10.88
2023-02-06T13:38:38.292Z,17.98
2023-02-06T13:42:48.985Z,12.00
2023-02-06T13:47:22.843Z,12.00
2023-02-06T13:51:43.706Z,12.13
2023-02-06T13:55:57.231Z,14.65
2023-02-06T14:00:03.604Z,13.73
2023-02-06T14:04:10.315Z,13.77
2023-02-06T14:08:24.484Z,15.77
2023-02-06T14:12:44.305Z,11.85
2023-02-06T14:16:55.618Z,12.77
2023-02-06T14:21:07.557Z,14.90
2023-02-06T14:25:29.648Z,14.10
2023-02-06T14:29:44.316Z,13.93
2023-02-06T14:34:05.143Z,10.25
2023-02-06T14:38:24.274Z,9.27
2023-02-06T14:42:33.163Z,12.88
2023-02-06T14:46:36.384Z,9.85
2023-02-06T14:50:42.124Z,10.18
2023-02-06T14:54:44.917Z,8.02
2023-02-06T14:58:51.233Z,12.00
2023-02-06T15:03:04.904Z,8.38
2023-02-06T15:07:07.649Z,11.02
2023-02-06T15:11:20.942Z,11.38
2023-02-06T15:15:26.893Z,10.00
2023-02-06T15:19:31.986Z,11.77
2023-02-06T15:23:55.353Z,13.73
2023-02-06T15:28:02.938Z,10.23
2023-02-06T15:32:18.021Z,12.80
2023-02-06T15:36:24.238Z,10.82
2023-02-06T15:40:31.794Z,13.38
2023-02-06T15:44:38.180Z,16.88
2023-02-06T15:48:49.866Z,12.40
2023-02-06T15:52:53.077Z,8.65
2023-02-06T15:57:01.974Z,13.35
2023-02-06T16:01:08.179Z,12.13
2023-02-06T16:05:26.220Z,9.18
2023-02-06T16:09:29.191Z,9.98
2023-02-06T16:13:33.417Z,10.43
2023-02-06T16:17:41.226Z,10.40
2023-02-06T16:21:47.370Z,15.90
2023-02-06T16:26:02.282Z,13.50
2023-02-06T16:30:05.518Z,11.90
2023-02-06T16:34:21.769Z,12.82
2023-02-06T16:38:25.946Z,14.80
2023-02-06T16:42:36.053Z,11.73
2023-02-06T16:46:38.845Z,20.27
2023-02-06T16:50:42.759Z,10.13
2023-02-06T16:54:47.083Z,11.65
2023-02-06T16:58:50.104Z,10.85
2023-02-06T17:02:53.676Z,10.77
2023-02-06T17:06:56.585Z,12.45
2023-02-06T17:11:00.800Z,9.50
2023-02-06T17:15:03.745Z,14.13
2023-02-06T17:19:06.528Z,13.45
2023-02-06T17:23:10.919Z,9.77
2023-02-06T17:27:17.607Z,13.85
2023-02-06T17:31:20.829Z,12.65
2023-02-06T17:35:23.650Z,11.52
2023-02-06T17:39:26.715Z,12.20
2023-02-06T17:43:31.118Z,13.95
2023-02-06T17:47:34.011Z,14.40
2023-02-06T17:51:36.946Z,21.02
2023-02-06T17:55:39.793Z,12.93
2023-02-06T17:59:43.974Z,31.63
2023-02-06T18:03:48.077Z,19.50
2023-02-06T18:07:51.842Z,10.88
2023-02-06T18:11:54.637Z,19.25
2023-02-06T18:15:58.891Z,13.48
2023-02-06T18:20:01.951Z,13.50
2023-02-06T18:24:05.523Z,14.98
2023-02-06T18:28:09.076Z,18.33
2023-02-06T18:32:13.965Z,14.32
2023-02-06T18:36:16.843Z,14.63
2023-02-06T18:40:20.152Z,14.10
2023-02-06T18:44:23.797Z,17.92
2023-02-06T18:48:27.942Z,19.08
2023-02-06T18:52:30.754Z,15.82
2023-02-06T18:56:33.772Z,16.05
2023-02-06T19:00:37.731Z,18.92
2023-02-06T19:04:42.653Z,13.52
2023-02-06T19:08:46.813Z,18.90
2023-02-06T19:12:49.768Z,16.67
2023-02-06T19:16:54.477Z,18.70
2023-02-06T19:20:58.643Z,18.10
2023-02-06T19:25:01.534Z,22.63
2023-02-06T19:29:04.527Z,17.98
2023-02-06T19:33:07.297Z,16.58
2023-02-06T19:37:12.406Z,18.98
2023-02-06T19:41:16.698Z,20.33
2023-02-06T19:45:19.573Z,20.15
2023-02-06T19:49:22.407Z,24.20
2023-02-06T19:53:26.524Z,14.82
2023-02-06T19:57:29.333Z,16.67
2023-02-06T20:01:32.708Z,16.35
2023-02-06T20:05:35.610Z,15.13
2023-02-06T20:09:41.883Z,20.50
2023-02-06T20:13:46.059Z,19.85
2023-02-06T20:17:51.785Z,18.42
2023-02-06T20:21:56.802Z,17.50
2023-02-06T20:26:02.751Z,20.87
2023-02-06T20:34:08.562Z,20.42
2023-02-06T20:38:11.608Z,17.60
2023-02-06T20:42:16.121Z,16.48
2023-02-06T20:46:19.935Z,23.38
2023-02-06T20:50:22.820Z,14.95
2023-02-06T20:54:26.124Z,18.95
2023-02-06T20:58:30.697Z,18.58
2023-02-06T21:02:33.824Z,21.15
2023-02-06T21:06:38.033Z,23.10
2023-02-06T21:10:40.851Z,18.40
2023-02-06T21:14:45.216Z,22.80
2023-02-06T21:18:48.006Z,18.95
2023-02-06T21:22:52.832Z,18.63
2023-02-06T21:26:55.648Z,25.30
2023-02-06T21:31:04.114Z,22.40
2023-02-06T21:35:09.312Z,19.30
2023-02-06T21:39:16.676Z,27.02
2023-02-06T21:43:19.473Z,20.73
2023-02-06T21:47:23.629Z,23.45
2023-02-06T21:51:26.745Z,21.83
2023-02-06T21:55:31.484Z,23.23
2023-02-06T21:59:34.361Z,19.60
2023-02-06T22:03:38.457Z,22.85
2023-02-06T22:07:41.218Z,27.45
2023-02-06T22:11:45.002Z,25.27
2023-02-06T22:15:51.241Z,26.23
2023-02-06T22:19:55.930Z,22.75
2023-02-06T22:24:00.786Z,25.42
2023-02-06T22:28:03.633Z,22.00
2023-02-06T22:32:07.324Z,28.80
2023-02-06T22:36:14.628Z,24.77
2023-02-06T22:40:17.868Z,22.77
2023-02-06T22:44:21.664Z,21.73
2023-02-06T22:48:24.867Z,28.63
2023-02-06T22:52:46.324Z,23.92
2023-02-06T22:56:49.161Z,27.15
2023-02-06T23:00:51.975Z,26.02
2023-02-06T23:04:54.742Z,23.80
2023-02-06T23:08:59.399Z,21.83
2023-02-06T23:13:02.169Z,27.83
2023-02-06T23:17:04.996Z,23.33
2023-02-06T23:21:10.703Z,24.08
2023-02-06T23:25:14.837Z,27.88
2023-02-06T23:29:19.435Z,24.15
2023-02-06T23:33:23.272Z,19.52
2023-02-06T23:37:26.183Z,23.95
2023-02-06T23:41:30.922Z,27.30
2023-02-06T23:45:33.981Z,23.90
2023-02-06T23:49:36.813Z,23.63
2023-02-06T23:53:39.646Z,26.40
2023-02-06T23:57:44.170Z,25.33
